Terminal Aerodrome Forecast
Issued by NWS Wilmington, NC

Home | Current Version | Previous Version | Text Only | Print | Product List | Glossary On
Versions: 1 2 3 4 5 6 7 8 9 10 11 12
000
FTUS42 KILM 230520
TAFFLO
TAF
KFLO 230520Z 2306/2406 08003KT P6SM FEW050 BKN200
      TEMPO 2309/2313 4SM BR
     FM231400 08007KT P6SM SCT060 BKN250
     FM231700 11008KT P6SM SCT060 SCT250
     FM240000 09003KT P6SM FEW250=

USA.gov is the U.S. government's official web portal to all federal, state and local government web resources and services.